FYLZ/LUD METAR and TAF weather

Enter ICAO airport designator
Station Type Date Time Source
FYLZ METAR 2018/10/21 06:00 UTC NOAA

FYLZ 210600Z AUTO 34010KT //// // ////// 14/13 Q1011


Station Type Date Time Source
FYLZ Decoded METAR 2018/10/21 06:00 UTC NOAA

Luderitz / Diaz Point, Namibia (FYLZ) 26-41S 015-15E
Oct 21, 2018 - 02:00 AM EDT / 2018.10.21 0600 UTC
Wind: from the NNW (340 degrees) at 12 MPH (10 KT):0
Temperature: 57 F (14 C)
Dew Point: 55 F (13 C)
Relative Humidity: 93%
Pressure (altimeter): 29.85 in. Hg (1011 hPa)
ob: FYLZ 210600Z AUTO 34010KT //// // ////// 14/13 Q1011
cycle: 6

Station Type Date Time Source
FYLZ TAF 2014/11/15 15:19 UTC NOAA

TAF FYLZ 151400Z 1515/1524 18015G28KT CAVOK
BECMG 1518/1520 16020KT


Example: see airport list